»·PEaware :: USC243 KLAS-KMRY

USC243 :: KLAS-KMRY

FLIGHT INFORMATION

Flight Status: Arrived
Operator: Unknown
More flights by this operator :: More flights under this callsign
Pilot: Andy P. (22680)
Aircraft: GATES LEARJET LEARJET 35/36
(LJ35)
More flights by this aircraft type
Origin: KLAS McCarran Intl
United States
Destination: KMRY Monterey Peninsula
United States
More flights between these airports :: More routes between these airports
Route: +SHEAD1 KENNO Q162 NTELL PXN SNS
File this flight plan on PilotEdge
Remarks:
Altitude:
(Current/Filed)
35,000ft
Speed:
(Current/Filed)
465kts
Departed: 02-Oct-19 12:03 PM
Arrived: 02-Oct-19 01:05 PM
Distance/Time
Traveled:
325nm/1:02
Distance/Time
To Go:
Arrived

Flight Plot

Page will automatically refresh every two minutes.

Flight plan parsing failed; only flown route is shown


Map Options




Map Legend


Flown Route
Filed Route
Departure Airport
Arrival Airport
Navaid (VOR, NDB)
Fix

Horizontal Profiles

Position Reports

Time Latitude Longitude Heading Altitude Ground
Speed
02-Oct-19 11:45 36.082913 -115.125571 90 2184ft 0kts
02-Oct-19 11:46 36.082913 -115.125571 90 2184ft 0kts
02-Oct-19 11:47 36.082913 -115.125571 90 2184ft 0kts
02-Oct-19 11:48 36.082913 -115.125571 90 2184ft 0kts
02-Oct-19 11:49 36.082913 -115.125571 90 2184ft 0kts
02-Oct-19 11:50 36.082913 -115.125571 90 2184ft 0kts
02-Oct-19 11:51 36.082913 -115.125571 90 2184ft 0kts
02-Oct-19 11:52 36.082913 -115.125571 90 2184ft 0kts
02-Oct-19 11:53 36.082913 -115.125571 90 2184ft 0kts
02-Oct-19 11:54 36.082913 -115.125571 90 2184ft 0kts
02-Oct-19 11:55 36.082913 -115.125571 90 2184ft 0kts
02-Oct-19 11:56 36.082913 -115.125571 90 2184ft 0kts
02-Oct-19 11:57 36.082913 -115.125571 90 2184ft 0kts
02-Oct-19 11:58 36.081563 -115.126263 194 2184ft 16kts
02-Oct-19 11:59 36.078093 -115.126274 176 2184ft 18kts
02-Oct-19 12:00 36.077556 -115.121648 107 2184ft 8kts
02-Oct-19 12:01 36.076407 -115.121876 268 2184ft 15kts
02-Oct-19 12:02 36.076729 -115.160151 272 2911ft 198kts
02-Oct-19 12:03 36.075435 -115.239103 248 6303ft 245kts
02-Oct-19 12:04 36.019856 -115.280746 202 7030ft 256kts
02-Oct-19 12:05 35.953314 -115.318238 224 7560ft 272kts
02-Oct-19 12:06 35.902750 -115.388068 225 8981ft 271kts
02-Oct-19 12:07 35.886815 -115.481856 270 10302ft 292kts
02-Oct-19 12:08 35.892406 -115.587547 267 11563ft 333kts
02-Oct-19 12:09 35.892247 -115.709088 274 15065ft 362kts
02-Oct-19 12:10 35.894265 -115.820562 268 17250ft 366kts
02-Oct-19 12:11 35.896233 -115.947582 275 19337ft 375kts
02-Oct-19 12:12 35.961882 -116.050368 314 21076ft 402kts
02-Oct-19 12:13 36.045456 -116.143771 312 22928ft 410kts
02-Oct-19 12:14 36.129812 -116.240852 312 24557ft 418kts
02-Oct-19 12:15 36.215376 -116.339943 311 25827ft 424kts
02-Oct-19 12:16 36.302223 -116.440856 311 27048ft 435kts
02-Oct-19 12:17 36.391103 -116.544466 311 28584ft 442kts
02-Oct-19 12:18 36.480874 -116.649445 311 29933ft 442kts
02-Oct-19 12:19 36.568051 -116.750064 316 32668ft 413kts
02-Oct-19 12:20 36.666150 -116.825305 321 34518ft 413kts
02-Oct-19 12:21 36.764145 -116.900044 321 35980ft 415kts
02-Oct-19 12:22 36.865785 -116.977677 322 36166ft 443kts
02-Oct-19 12:23 36.973646 -117.060237 322 36174ft 460kts
02-Oct-19 12:24 37.083597 -117.144656 322 35978ft 462kts
02-Oct-19 12:25 37.191643 -117.227919 322 36217ft 453kts
02-Oct-19 12:26 37.295835 -117.314907 306 36192ft 439kts
02-Oct-19 12:27 37.321216 -117.453611 266 36206ft 416kts
02-Oct-19 12:28 37.325599 -117.600032 271 36204ft 423kts
02-Oct-19 12:29 37.338092 -117.748225 273 36191ft 426kts
02-Oct-19 12:30 37.350074 -117.896018 267 36189ft 425kts
02-Oct-19 12:31 37.337505 -118.043373 262 36190ft 423kts
02-Oct-19 12:32 37.324822 -118.190581 261 36188ft 424kts
02-Oct-19 12:33 37.311712 -118.337903 261 36188ft 425kts
02-Oct-19 12:34 37.298356 -118.485509 261 36188ft 425kts
02-Oct-19 12:35 37.284772 -118.633442 261 36190ft 425kts
02-Oct-19 12:36 37.258729 -118.776823 247 36209ft 423kts
02-Oct-19 12:37 37.215185 -118.914277 247 36227ft 424kts
02-Oct-19 12:38 37.171441 -119.051642 247 36208ft 424kts
02-Oct-19 12:39 37.127530 -119.188761 247 36184ft 425kts
02-Oct-19 12:40 37.083598 -119.325326 247 35051ft 407kts
02-Oct-19 12:41 37.041437 -119.455726 247 33367ft 406kts
02-Oct-19 12:42 36.998312 -119.588520 247 31608ft 417kts
02-Oct-19 12:43 36.953708 -119.725273 247 29802ft 430kts
02-Oct-19 12:44 36.908280 -119.865137 249 27957ft 439kts
02-Oct-19 12:45 36.874557 -120.013216 255 26071ft 450kts
02-Oct-19 12:46 36.843201 -120.166547 255 24135ft 454kts
02-Oct-19 12:47 36.812399 -120.315877 255 22247ft 437kts
02-Oct-19 12:48 36.781816 -120.463058 255 20385ft 433kts
02-Oct-19 12:49 36.751762 -120.606770 255 18568ft 426kts
02-Oct-19 12:50 36.722303 -120.747601 256 16788ft 417kts
02-Oct-19 12:51 36.708885 -120.890328 265 15027ft 408kts
02-Oct-19 12:52 36.700569 -121.027145 265 13339ft 394kts
02-Oct-19 12:53 36.692819 -121.152432 265 11789ft 321kts
02-Oct-19 12:54 36.686398 -121.256848 265 10372ft 284kts
02-Oct-19 12:55 36.670184 -121.347159 246 9083ft 260kts
02-Oct-19 12:56 36.639783 -121.427837 244 7654ft 264kts
02-Oct-19 12:57 36.611383 -121.503481 244 6428ft 214kts
02-Oct-19 12:58 36.587791 -121.569283 254 5057ft 201kts
02-Oct-19 12:59 36.576871 -121.632791 260 3926ft 172kts
02-Oct-19 13:00 36.570447 -121.686085 263 2700ft 152kts
02-Oct-19 13:01 36.566983 -121.736649 269 1812ft 139kts
02-Oct-19 13:02 36.568605 -121.782058 283 1287ft 125kts
02-Oct-19 13:03 36.579522 -121.822103 293 511ft 117kts
02-Oct-19 13:04 36.587159 -121.845870 213 208ft 5kts
02-Oct-19 13:05 36.589240 -121.853328 285 208ft 31kts
02-Oct-19 13:06 36.588656 -121.858209 106 208ft 0kts
02-Oct-19 13:07 36.588656 -121.858208 106 208ft 0kts

Navigation Log

Ident Type
Flight plan parsing failed, navigation log unavailable